createdAt,value
2023-01-04T00:00:00.432Z,75.2
2023-01-04T00:05:00.489Z,74.6
2023-01-04T00:10:00.500Z,74.8
2023-01-04T00:15:00.463Z,75.0
2023-01-04T00:20:00.469Z,74.2
2023-01-04T00:25:00.437Z,74.2
2023-01-04T00:30:00.513Z,73.6
2023-01-04T00:35:00.429Z,73.1
2023-01-04T00:40:00.459Z,72.9
2023-01-04T00:45:00.480Z,72.6
2023-01-04T00:50:00.745Z,72.3
2023-01-04T00:55:00.432Z,72.2
2023-01-04T01:00:00.808Z,71.8
2023-01-04T01:05:00.446Z,71.7
2023-01-04T01:10:00.472Z,71.3
2023-01-04T01:15:00.861Z,70.7
2023-01-04T01:20:00.461Z,70.7
2023-01-04T01:25:00.438Z,70.4
2023-01-04T01:30:00.465Z,70.5
2023-01-04T01:35:00.435Z,70.2
2023-01-04T01:40:00.466Z,70.0
2023-01-04T01:45:00.457Z,69.6
2023-01-04T01:50:00.451Z,69.6
2023-01-04T01:55:00.435Z,69.4
2023-01-04T02:00:00.498Z,69.7
2023-01-04T02:05:00.424Z,69.0
2023-01-04T02:10:00.454Z,69.3
2023-01-04T02:15:00.441Z,69.0
2023-01-04T02:20:00.461Z,68.8
2023-01-04T02:25:00.446Z,69.3
2023-01-04T02:30:00.461Z,69.1
2023-01-04T02:35:00.437Z,69.0
2023-01-04T02:40:00.476Z,68.9
2023-01-04T02:45:00.479Z,68.9
2023-01-04T02:50:04.712Z,68.9
2023-01-04T02:55:00.439Z,69.2
2023-01-04T03:00:01.000Z,69.0
2023-01-04T03:05:00.437Z,69.0
2023-01-04T03:10:00.477Z,69.1
2023-01-04T03:15:00.575Z,70.0
2023-01-04T03:20:00.482Z,69.6
2023-01-04T03:25:00.446Z,69.4
2023-01-04T03:30:00.658Z,69.9
2023-01-04T03:35:00.427Z,70.5
2023-01-04T03:40:00.475Z,71.1
2023-01-04T03:45:05.995Z,72.1
2023-01-04T03:50:00.480Z,72.9
2023-01-04T03:55:00.433Z,73.4
2023-01-04T04:00:00.690Z,74.4
2023-01-04T04:05:00.465Z,74.5
2023-01-04T04:10:00.474Z,75.8
2023-01-04T04:15:00.451Z,76.9
2023-01-04T04:20:00.636Z,77.3
2023-01-04T04:25:00.472Z,77.9
2023-01-04T04:30:00.462Z,78.0
2023-01-04T04:35:00.469Z,78.2
2023-01-04T04:40:00.468Z,79.2
2023-01-04T04:45:00.427Z,79.7
2023-01-04T04:50:00.540Z,80.4
2023-01-04T04:55:00.467Z,81.1
2023-01-04T05:00:00.576Z,81.3
2023-01-04T05:05:00.493Z,81.2
2023-01-04T05:10:00.439Z,81.9
2023-01-04T05:15:00.516Z,81.7
2023-01-04T05:20:00.471Z,82.8
2023-01-04T05:25:00.512Z,83.3
2023-01-04T05:30:00.452Z,82.9
2023-01-04T05:35:00.494Z,83.0
2023-01-04T05:40:00.471Z,83.7
2023-01-04T05:45:00.485Z,84.0
2023-01-04T05:50:00.452Z,84.4
2023-01-04T05:55:00.486Z,84.3
2023-01-04T06:00:00.437Z,84.5
2023-01-04T06:05:00.479Z,84.6
2023-01-04T06:10:00.469Z,84.8
2023-01-04T06:15:00.486Z,85.0
2023-01-04T06:20:00.471Z,85.1
2023-01-04T06:25:00.460Z,84.9
2023-01-04T06:30:00.491Z,84.9
2023-01-04T06:35:00.421Z,85.2
2023-01-04T06:40:00.465Z,85.2
2023-01-04T06:45:00.487Z,85.0
2023-01-04T06:50:00.463Z,85.2
2023-01-04T06:55:00.476Z,85.8
2023-01-04T07:00:01.857Z,86.0
2023-01-04T07:05:00.532Z,86.4
2023-01-04T07:10:07.096Z,86.6
2023-01-04T07:15:00.486Z,86.7
2023-01-04T07:20:00.478Z,87.1
2023-01-04T07:25:00.459Z,87.0
2023-01-04T07:30:00.609Z,87.1
2023-01-04T07:35:00.478Z,87.3
2023-01-04T07:40:00.534Z,87.2
2023-01-04T07:45:00.456Z,87.1
2023-01-04T07:50:00.466Z,86.9
2023-01-04T07:55:00.477Z,87.3
2023-01-04T08:00:00.963Z,87.0
2023-01-04T08:05:00.655Z,86.8
2023-01-04T08:10:00.484Z,86.7
2023-01-04T08:15:00.441Z,86.8
2023-01-04T08:20:00.496Z,87.4
2023-01-04T08:25:00.486Z,87.3
2023-01-04T08:30:00.485Z,87.5
2023-01-04T08:35:00.418Z,87.5
2023-01-04T08:40:00.547Z,87.4
2023-01-04T08:45:00.470Z,87.4
2023-01-04T08:50:04.772Z,87.3
2023-01-04T08:55:00.596Z,87.5
2023-01-04T09:00:00.421Z,87.7
2023-01-04T09:05:00.599Z,87.8
2023-01-04T09:10:00.487Z,87.4
2023-01-04T09:15:00.440Z,87.5
2023-01-04T09:20:00.545Z,88.0
2023-01-04T09:25:00.489Z,88.0
2023-01-04T09:30:00.553Z,88.1
2023-01-04T09:35:01.639Z,88.0
2023-01-04T09:40:00.433Z,88.4
2023-01-04T09:45:23.304Z,88.6
2023-01-04T09:50:00.435Z,88.3
2023-01-04T09:55:04.725Z,88.7
2023-01-04T10:00:00.432Z,88.5
2023-01-04T10:05:00.484Z,88.4
2023-01-04T10:10:00.473Z,88.6
2023-01-04T10:15:00.452Z,88.0
2023-01-04T10:25:00.447Z,87.7
2023-01-04T10:30:01.100Z,87.6
2023-01-04T10:35:00.446Z,87.5
2023-01-04T10:40:00.484Z,87.6
2023-01-04T10:45:05.078Z,87.9
2023-01-04T10:50:00.488Z,87.9
2023-01-04T10:55:00.430Z,87.8
2023-01-04T11:00:00.493Z,87.8
2023-01-04T11:05:00.436Z,87.6
2023-01-04T11:10:00.508Z,87.4
2023-01-04T11:15:00.476Z,87.5
2023-01-04T11:20:00.486Z,88.0
2023-01-04T11:25:33.977Z,88.1
2023-01-04T11:30:00.525Z,88.1
2023-01-04T11:35:00.436Z,88.4
2023-01-04T11:40:00.489Z,88.8
2023-01-04T11:45:00.475Z,88.9
2023-01-04T11:50:00.651Z,89.2
2023-01-04T11:55:00.432Z,89.2
2023-01-04T12:00:00.560Z,88.9
2023-01-04T12:05:00.464Z,89.0
2023-01-04T12:10:00.475Z,89.1
2023-01-04T12:15:00.482Z,89.1
2023-01-04T12:20:00.468Z,89.2
2023-01-04T12:25:00.983Z,89.2
2023-01-04T12:30:00.507Z,88.5
2023-01-04T12:35:00.437Z,88.6
2023-01-04T12:40:00.887Z,88.1
2023-01-04T12:45:00.486Z,87.9
2023-01-04T12:50:00.478Z,87.8
2023-01-04T12:55:00.589Z,87.7
2023-01-04T13:00:00.509Z,88.0
2023-01-04T13:10:00.477Z,87.7
2023-01-04T13:15:00.448Z,87.9
2023-01-04T13:20:00.873Z,87.6
2023-01-04T13:25:00.431Z,87.5
2023-01-04T13:30:00.478Z,87.5
2023-01-04T13:35:00.467Z,87.1
2023-01-04T13:40:00.500Z,86.9
2023-01-04T13:45:20.918Z,86.7
2023-01-04T13:50:00.504Z,86.7
2023-01-04T13:55:00.496Z,86.5
2023-01-04T14:00:00.549Z,86.6
2023-01-04T14:05:00.433Z,86.7
2023-01-04T14:10:00.515Z,86.8
2023-01-04T14:15:00.454Z,86.5
2023-01-04T14:20:00.533Z,87.0
2023-01-04T14:25:09.436Z,86.6
2023-01-04T14:30:00.477Z,85.6
2023-01-04T14:35:00.438Z,84.7
2023-01-04T14:40:00.474Z,83.9
2023-01-04T14:45:00.554Z,83.7
2023-01-04T14:50:00.431Z,83.4
2023-01-04T14:55:00.487Z,83.1
2023-01-04T15:00:00.475Z,83.2
2023-01-04T15:05:00.510Z,83.1
2023-01-04T15:10:00.437Z,83.2
2023-01-04T15:15:00.483Z,83.6
2023-01-04T15:20:00.485Z,83.5
2023-01-04T15:25:00.490Z,84.1
2023-01-04T15:30:00.442Z,84.2
2023-01-04T15:35:00.474Z,84.9
2023-01-04T15:40:03.203Z,85.4
2023-01-04T15:45:00.518Z,85.3
2023-01-04T15:50:00.465Z,83.9
2023-01-04T15:55:00.487Z,83.6
2023-01-04T16:00:01.383Z,83.6
2023-01-04T16:05:00.461Z,83.5
2023-01-04T16:10:00.554Z,83.1
2023-01-04T16:15:00.437Z,83.1
2023-01-04T16:20:00.610Z,81.8
2023-01-04T16:25:10.531Z,81.6
2023-01-04T16:30:00.492Z,81.4
2023-01-04T16:35:00.444Z,81.3
2023-01-04T16:40:08.542Z,82.9
2023-01-04T16:45:00.453Z,82.7
2023-01-04T16:50:00.474Z,82.8
2023-01-04T16:55:00.485Z,83.3
2023-01-04T17:00:00.505Z,83.0
2023-01-04T17:05:00.445Z,82.8
2023-01-04T17:10:00.501Z,82.1
2023-01-04T17:15:40.686Z,82.6
2023-01-04T17:20:00.473Z,82.4
2023-01-04T17:25:00.436Z,82.6
2023-01-04T17:30:00.504Z,82.3
2023-01-04T17:35:00.441Z,82.2
2023-01-04T17:40:00.579Z,81.9
2023-01-04T17:45:00.484Z,82.2
2023-01-04T17:50:02.523Z,82.3
2023-01-04T17:55:00.427Z,82.4
2023-01-04T18:00:01.190Z,82.9
2023-01-04T18:05:00.444Z,83.1
2023-01-04T18:10:00.543Z,83.0
2023-01-04T18:15:00.510Z,83.0
2023-01-04T18:20:00.496Z,82.4
2023-01-04T18:25:00.467Z,82.1
2023-01-04T18:30:00.659Z,83.5
2023-01-04T18:35:00.483Z,84.6
2023-01-04T18:40:00.441Z,83.3
2023-01-04T18:45:00.500Z,82.3
2023-01-04T18:50:01.218Z,81.3
2023-01-04T18:55:00.484Z,80.9
2023-01-04T19:00:00.485Z,81.3
2023-01-04T19:05:00.482Z,80.6
2023-01-04T19:10:00.452Z,81.2
2023-01-04T19:15:00.504Z,81.6
2023-01-04T19:20:00.474Z,82.1
2023-01-04T19:25:00.539Z,81.3
2023-01-04T19:30:00.434Z,81.1
2023-01-04T19:35:00.494Z,81.1
2023-01-04T19:40:00.427Z,80.7
2023-01-04T19:45:00.489Z,80.6
2023-01-04T19:50:00.494Z,80.7
2023-01-04T19:55:00.479Z,80.2
2023-01-04T20:00:00.457Z,80.2
2023-01-04T20:05:00.490Z,80.4
2023-01-04T20:10:00.482Z,81.3
2023-01-04T20:15:00.455Z,82.5
2023-01-04T20:20:00.481Z,84.3
2023-01-04T20:25:00.461Z,85.2
2023-01-04T20:30:00.504Z,84.7
2023-01-04T20:35:00.488Z,84.8
2023-01-04T20:40:02.480Z,84.9
2023-01-04T20:45:00.449Z,85.7
2023-01-04T20:50:00.486Z,86.4
2023-01-04T20:55:00.478Z,82.3
2023-01-04T21:00:00.502Z,81.1
2023-01-04T21:05:00.471Z,78.7
2023-01-04T21:10:00.487Z,79.4
2023-01-04T21:15:00.495Z,80.4
2023-01-04T21:20:00.467Z,82.0
2023-01-04T21:25:00.445Z,83.1
2023-01-04T21:30:00.739Z,83.0
2023-01-04T21:35:00.457Z,83.7
2023-01-04T21:40:00.496Z,83.7
2023-01-04T21:45:00.510Z,83.1
2023-01-04T21:50:00.488Z,83.1
2023-01-04T21:55:00.448Z,83.2
2023-01-04T22:00:00.503Z,83.2
2023-01-04T22:05:00.465Z,83.2
2023-01-04T22:10:00.484Z,82.4
2023-01-04T22:15:00.507Z,82.3
2023-01-04T22:20:00.475Z,82.0
2023-01-04T22:25:00.507Z,80.7
2023-01-04T22:30:00.488Z,80.7
2023-01-04T22:35:00.473Z,80.4
2023-01-04T22:40:00.518Z,79.8
2023-01-04T22:45:00.475Z,79.7
2023-01-04T22:50:00.495Z,79.9
2023-01-04T22:55:00.488Z,80.0
2023-01-04T23:00:00.471Z,79.9
2023-01-04T23:05:00.496Z,79.6
2023-01-04T23:10:00.500Z,79.7
2023-01-04T23:15:00.482Z,79.6
2023-01-04T23:20:00.475Z,79.2
2023-01-04T23:25:00.493Z,78.9
2023-01-04T23:30:00.441Z,78.9
2023-01-04T23:35:00.492Z,78.6
2023-01-04T23:40:00.478Z,78.9
2023-01-04T23:45:00.474Z,79.2
2023-01-04T23:50:00.439Z,80.9
2023-01-04T23:55:00.461Z,80.9
